Point Mugu Naval Air Station (Naval Base Ventura Co)
KNTD : rendu visible

Aérodrome :











RETROUVEZ-NOUS SUR...

 
LOGIN :

S'inscrire | Disclaimer

   EN    FR    IT 

 









Légende :    VFR   VFR Marginal   IFR   IFR Intensif   IFR Très Intensif
Visi : 
Plafond : 
>= 8 km
>= 3000ft
5 à 8 km
1000 à 3000 ft
1500m à 5 km
500 à 1000 ft
800 à 1500m
200 à 500 ft
< 800m
< 200 ft
Symboles :   Orages  Brouillard  Fortes neiges  Fortes précipitations  Vent > 20 kt






- Altitude de l'aérodrome : 13 ft


KNTD - Point Mugu Naval Air Station (Naval Base Ventura Co)

DERNIER METAR :
  • 100852Z AUTO 05005KT 10SM CLR 09/06 A3015 RMK AO2 SLP209 T00890056 51009 $

METARs EXPIRÉS :
  • 100752Z AUTO 31004KT 10SM CLR 10/07 A3015 RMK AO2 SLP209 T01000072 401940083 $
  • 100652Z 35004KT 10SM FEW280 11/09 A3013 RMK AO2 SLP204 T01110089 $

TAF TAF KNTD
Valide du 10 à 07h jusqu'au 11 à 07h UTC


1007/1107 VRB06KT 9999 SCT250 QNH3009INS AUTOMATED SENSOR METWATCH 1007 TIL 1015 T13/1013Z T17/1022Z FS30149



MET'MAP, la Météo Aéronautique d'un coup d'oeil ! - Copyright ORBIFLY Décembre 2007 - Disclaimer

ORBIFLY MET'MAP TEAM :

Programmation & Développement : Alexandra Zaïnal
Sur une idée originale de : Baudouin d'Aumeries
Assistance à la programmation : Marc-Olivier Méhu
Soutien technique & logistique : Manuel Goepfert

Contact : metmap@orbifly.com




SOURCES & CREDITS :

   NOAA       Earth
Advisory